sensor_id;sensor_type;location;lat;lon;timestamp;pressure;altitude;pressure_sealevel;temperature;humidity
33554;BME280;19885;42.208;24.952;2023-11-18T00:00:21;98894.81;;;10.71;100.00
33554;BME280;19885;42.208;24.952;2023-11-18T00:02:46;98883.50;;;10.77;100.00
33554;BME280;19885;42.208;24.952;2023-11-18T00:05:12;98884.25;;;10.85;100.00
33554;BME280;19885;42.208;24.952;2023-11-18T00:07:40;98894.72;;;10.80;100.00
33554;BME280;19885;42.208;24.952;2023-11-18T00:10:06;98902.53;;;10.83;100.00
33554;BME280;19885;42.208;24.952;2023-11-18T00:12:32;98889.50;;;10.83;100.00
33554;BME280;19885;42.208;24.952;2023-11-18T00:15:00;98907.69;;;10.88;100.00
33554;BME280;19885;42.208;24.952;2023-11-18T00:17:25;98908.53;;;10.88;100.00
33554;BME280;19885;42.208;24.952;2023-11-18T00:19:50;98917.41;;;10.72;100.00
33554;BME280;19885;42.208;24.952;2023-11-18T00:22:16;98921.28;;;10.21;100.00
33554;BME280;19885;42.208;24.952;2023-11-18T00:24:41;98915.88;;;10.48;100.00
33554;BME280;19885;42.208;24.952;2023-11-18T00:27:06;98916.78;;;10.43;100.00
33554;BME280;19885;42.208;24.952;2023-11-18T00:29:35;98919.19;;;10.64;100.00
33554;BME280;19885;42.208;24.952;2023-11-18T00:32:03;98923.59;;;10.60;100.00
33554;BME280;19885;42.208;24.952;2023-11-18T00:34:29;98918.34;;;10.62;100.00
33554;BME280;19885;42.208;24.952;2023-11-18T00:36:57;98912.34;;;10.52;100.00
33554;BME280;19885;42.208;24.952;2023-11-18T00:39:23;98916.78;;;10.41;100.00
33554;BME280;19885;42.208;24.952;2023-11-18T00:41:51;98908.00;;;10.53;100.00
33554;BME280;19885;42.208;24.952;2023-11-18T00:44:16;98899.19;;;10.66;100.00
33554;BME280;19885;42.208;24.952;2023-11-18T00:46:44;98893.88;;;10.78;100.00
33554;BME280;19885;42.208;24.952;2023-11-18T00:49:10;98894.72;;;10.80;100.00
33554;BME280;19885;42.208;24.952;2023-11-18T00:51:37;98888.59;;;10.84;100.00
33554;BME280;19885;42.208;24.952;2023-11-18T00:54:02;98896.44;;;10.86;100.00
33554;BME280;19885;42.208;24.952;2023-11-18T00:56:30;98897.28;;;10.85;100.00
33554;BME280;19885;42.208;24.952;2023-11-18T00:58:59;98895.72;;;10.68;100.00
33554;BME280;19885;42.208;24.952;2023-11-18T01:01:26;98886.19;;;10.66;100.00
33554;BME280;19885;42.208;24.952;2023-11-18T01:03:51;98891.22;;;10.83;100.00
33554;BME280;19885;42.208;24.952;2023-11-18T01:06:18;98880.00;;;10.74;100.00
33554;BME280;19885;42.208;24.952;2023-11-18T01:08:44;98894.94;;;10.57;100.00
33554;BME280;19885;42.208;24.952;2023-11-18T01:11:10;98899.22;;;10.67;100.00
33554;BME280;19885;42.208;24.952;2023-11-18T01:13:35;98895.91;;;10.46;100.00
33554;BME280;19885;42.208;24.952;2023-11-18T01:16:00;98883.97;;;10.24;100.00
33554;BME280;19885;42.208;24.952;2023-11-18T01:18:29;98894.31;;;10.33;100.00
33554;BME280;19885;42.208;24.952;2023-11-18T01:20:55;98898.41;;;10.59;100.00
33554;BME280;19885;42.208;24.952;2023-11-18T01:23:20;98896.88;;;10.37;100.00
33554;BME280;19885;42.208;24.952;2023-11-18T01:25:45;98894.38;;;10.24;100.00
33554;BME280;19885;42.208;24.952;2023-11-18T01:28:11;98900.44;;;10.23;100.00
33554;BME280;19885;42.208;24.952;2023-11-18T01:30:36;98908.41;;;10.01;100.00
33554;BME280;19885;42.208;24.952;2023-11-18T01:33:01;98908.41;;;10.01;100.00
33554;BME280;19885;42.208;24.952;2023-11-18T01:35:27;98911.13;;;9.83;100.00
33554;BME280;19885;42.208;24.952;2023-11-18T01:37:53;98905.84;;;9.92;100.00
33554;BME280;19885;42.208;24.952;2023-11-18T01:40:20;98906.75;;;9.85;100.00
33554;BME280;19885;42.208;24.952;2023-11-18T01:42:45;98911.13;;;9.80;100.00
33554;BME280;19885;42.208;24.952;2023-11-18T01:45:11;98912.00;;;9.75;100.00
33554;BME280;19885;42.208;24.952;2023-11-18T01:47:37;98898.94;;;9.90;100.00
33554;BME280;19885;42.208;24.952;2023-11-18T01:50:03;98896.41;;;9.76;100.00
33554;BME280;19885;42.208;24.952;2023-11-18T01:52:33;98891.19;;;9.81;100.00
33554;BME280;19885;42.208;24.952;2023-11-18T01:54:59;98897.28;;;9.74;100.00
33554;BME280;19885;42.208;24.952;2023-11-18T01:57:24;98900.72;;;9.79;100.00
33554;BME280;19885;42.208;24.952;2023-11-18T01:59:55;98902.53;;;9.69;100.00
33554;BME280;19885;42.208;24.952;2023-11-18T02:02:20;98903.38;;;9.68;100.00
33554;BME280;19885;42.208;24.952;2023-11-18T02:04:48;98908.63;;;9.62;100.00
33554;BME280;19885;42.208;24.952;2023-11-18T02:07:14;98919.03;;;9.59;100.00
33554;BME280;19885;42.208;24.952;2023-11-18T02:09:40;98904.31;;;9.57;100.00
33554;BME280;19885;42.208;24.952;2023-11-18T02:14:39;98891.34;;;9.49;100.00
33554;BME280;19885;42.208;24.952;2023-11-18T02:17:04;98898.31;;;9.40;100.00
33554;BME280;19885;42.208;24.952;2023-11-18T02:19:30;98896.59;;;9.37;100.00
33554;BME280;19885;42.208;24.952;2023-11-18T02:21:56;98909.63;;;9.32;100.00
33554;BME280;19885;42.208;24.952;2023-11-18T02:24:28;98920.84;;;9.36;100.00
33554;BME280;19885;42.208;24.952;2023-11-18T02:26:58;98923.47;;;9.31;100.00
33554;BME280;19885;42.208;24.952;2023-11-18T02:29:25;98914.00;;;9.18;100.00
33554;BME280;19885;42.208;24.952;2023-11-18T02:31:52;98925.28;;;9.17;100.00
33554;BME280;19885;42.208;24.952;2023-11-18T02:34:19;98927.88;;;9.22;100.00
33554;BME280;19885;42.208;24.952;2023-11-18T02:36:48;98920.88;;;9.27;100.00
33554;BME280;19885;42.208;24.952;2023-11-18T02:39:26;98924.34;;;9.24;100.00
33554;BME280;19885;42.208;24.952;2023-11-18T02:41:54;98930.50;;;9.05;100.00
33554;BME280;19885;42.208;24.952;2023-11-18T02:44:21;98923.59;;;8.98;100.00
33554;BME280;19885;42.208;24.952;2023-11-18T02:46:48;98917.50;;;9.07;100.00
33554;BME280;19885;42.208;24.952;2023-11-18T02:49:13;98910.63;;;8.92;100.00
33554;BME280;19885;42.208;24.952;2023-11-18T02:51:39;98924.47;;;8.96;100.00
33554;BME280;19885;42.208;24.952;2023-11-18T02:54:08;98934.00;;;8.92;100.00
33554;BME280;19885;42.208;24.952;2023-11-18T02:56:39;98927.06;;;8.96;100.00
33554;BME280;19885;42.208;24.952;2023-11-18T02:59:05;98929.69;;;8.81;100.00
33554;BME280;19885;42.208;24.952;2023-11-18T03:01:33;98921.03;;;8.76;100.00
33554;BME280;19885;42.208;24.952;2023-11-18T03:03:59;98923.63;;;8.77;100.00
33554;BME280;19885;42.208;24.952;2023-11-18T03:06:24;98928.84;;;8.70;100.00
33554;BME280;19885;42.208;24.952;2023-11-18T03:08:51;98928.81;;;8.76;100.00
33554;BME280;19885;42.208;24.952;2023-11-18T03:11:16;98935.78;;;8.68;100.00
33554;BME280;19885;42.208;24.952;2023-11-18T03:13:42;98934.91;;;8.63;100.00
33554;BME280;19885;42.208;24.952;2023-11-18T03:16:08;98936.66;;;8.42;100.00
33554;BME280;19885;42.208;24.952;2023-11-18T03:18:41;98924.53;;;8.41;100.00
33554;BME280;19885;42.208;24.952;2023-11-18T03:21:15;98924.53;;;8.49;100.00
33554;BME280;19885;42.208;24.952;2023-11-18T03:23:41;98916.72;;;8.34;100.00
33554;BME280;19885;42.208;24.952;2023-11-18T03:26:09;98917.59;;;8.37;100.00
33554;BME280;19885;42.208;24.952;2023-11-18T03:28:37;98920.16;;;8.19;100.00
33554;BME280;19885;42.208;24.952;2023-11-18T03:31:05;98920.16;;;8.22;100.00
33554;BME280;19885;42.208;24.952;2023-11-18T03:33:31;98931.41;;;8.24;100.00
33554;BME280;19885;42.208;24.952;2023-11-18T03:35:56;98922.75;;;8.21;100.00
33554;BME280;19885;42.208;24.952;2023-11-18T03:38:22;98924.47;;;8.20;100.00
33554;BME280;19885;42.208;24.952;2023-11-18T03:40:49;98921.03;;;8.12;100.00
33554;BME280;19885;42.208;24.952;2023-11-18T03:43:14;98921.03;;;8.15;100.00
33554;BME280;19885;42.208;24.952;2023-11-18T03:45:40;98921.88;;;8.08;100.00
33554;BME280;19885;42.208;24.952;2023-11-18T03:48:05;98928.81;;;8.12;100.00
33554;BME280;19885;42.208;24.952;2023-11-18T03:50:31;98933.13;;;8.12;100.00
33554;BME280;19885;42.208;24.952;2023-11-18T03:52:57;98921.88;;;8.07;100.00
33554;BME280;19885;42.208;24.952;2023-11-18T03:55:22;98904.59;;;8.15;100.00
33554;BME280;19885;42.208;24.952;2023-11-18T03:57:47;98924.47;;;8.11;100.00
33554;BME280;19885;42.208;24.952;2023-11-18T04:00:15;98943.50;;;8.18;100.00
33554;BME280;19885;42.208;24.952;2023-11-18T04:02:40;98959.06;;;8.21;100.00
33554;BME280;19885;42.208;24.952;2023-11-18T04:05:06;98949.56;;;8.15;100.00
33554;BME280;19885;42.208;24.952;2023-11-18T04:07:33;98945.22;;;8.14;100.00
33554;BME280;19885;42.208;24.952;2023-11-18T04:09:58;98936.59;;;8.15;100.00
33554;BME280;19885;42.208;24.952;2023-11-18T04:12:25;98927.94;;;8.07;100.00
33554;BME280;19885;42.208;24.952;2023-11-18T04:14:54;98913.25;;;8.06;100.00
33554;BME280;19885;42.208;24.952;2023-11-18T04:17:19;98921.88;;;7.99;100.00
33554;BME280;19885;42.208;24.952;2023-11-18T04:19:44;98924.44;;;7.90;100.00
33554;BME280;19885;42.208;24.952;2023-11-18T04:22:10;98912.34;;;7.89;100.00
33554;BME280;19885;42.208;24.952;2023-11-18T04:24:35;98914.06;;;7.88;100.00
33554;BME280;19885;42.208;24.952;2023-11-18T04:27:01;98912.31;;;7.86;100.00
33554;BME280;19885;42.208;24.952;2023-11-18T04:29:27;98913.19;;;7.86;100.00
33554;BME280;19885;42.208;24.952;2023-11-18T04:31:52;98917.47;;;7.77;100.00
33554;BME280;19885;42.208;24.952;2023-11-18T04:34:18;98920.94;;;7.71;100.00
33554;BME280;19885;42.208;24.952;2023-11-18T04:36:44;98916.63;;;7.79;100.00
33554;BME280;19885;42.208;24.952;2023-11-18T04:39:09;98919.22;;;7.78;100.00
33554;BME280;19885;42.208;24.952;2023-11-18T04:41:37;98903.66;;;7.70;100.00
33554;BME280;19885;42.208;24.952;2023-11-18T04:44:02;98921.81;;;7.78;100.00
33554;BME280;19885;42.208;24.952;2023-11-18T04:46:27;98927.84;;;7.65;100.00
33554;BME280;19885;42.208;24.952;2023-11-18T04:48:53;98929.56;;;7.64;100.00
33554;BME280;19885;42.208;24.952;2023-11-18T04:51:19;98945.16;;;7.72;100.00
33554;BME280;19885;42.208;24.952;2023-11-18T04:53:46;98945.09;;;7.60;100.00
33554;BME280;19885;42.208;24.952;2023-11-18T04:56:12;98946.00;;;7.65;100.00
33554;BME280;19885;42.208;24.952;2023-11-18T04:58:38;98974.50;;;7.65;100.00
33554;BME280;19885;42.208;24.952;2023-11-18T05:01:04;98964.13;;;7.62;100.00
33554;BME280;19885;42.208;24.952;2023-11-18T05:03:30;98967.59;;;7.73;100.00
33554;BME280;19885;42.208;24.952;2023-11-18T05:05:55;98973.63;;;7.60;100.00
33554;BME280;19885;42.208;24.952;2023-11-18T05:08:21;98977.06;;;7.59;100.00
33554;BME280;19885;42.208;24.952;2023-11-18T05:10:49;98960.59;;;7.48;100.00
33554;BME280;19885;42.208;24.952;2023-11-18T05:13:15;98955.41;;;7.42;100.00
33554;BME280;19885;42.208;24.952;2023-11-18T05:15:42;98951.91;;;7.35;100.00
33554;BME280;19885;42.208;24.952;2023-11-18T05:18:10;98947.63;;;7.40;100.00
33554;BME280;19885;42.208;24.952;2023-11-18T05:20:36;98946.78;;;7.46;100.00
33554;BME280;19885;42.208;24.952;2023-11-18T05:23:02;98946.75;;;7.40;100.00
33554;BME280;19885;42.208;24.952;2023-11-18T05:25:28;98956.22;;;7.33;100.00
33554;BME280;19885;42.208;24.952;2023-11-18T05:27:54;98951.03;;;7.35;100.00
33554;BME280;19885;42.208;24.952;2023-11-18T05:30:19;98946.72;;;7.31;100.00
33554;BME280;19885;42.208;24.952;2023-11-18T05:32:44;98953.66;;;7.38;100.00
33554;BME280;19885;42.208;24.952;2023-11-18T05:35:10;98938.91;;;7.26;100.00
33554;BME280;19885;42.208;24.952;2023-11-18T05:37:37;98938.03;;;7.19;100.00
33554;BME280;19885;42.208;24.952;2023-11-18T05:40:03;98933.69;;;7.18;100.00
33554;BME280;19885;42.208;24.952;2023-11-18T05:42:34;98949.28;;;7.28;100.00
33554;BME280;19885;42.208;24.952;2023-11-18T05:45:06;98979.56;;;7.33;100.00
33554;BME280;19885;42.208;24.952;2023-11-18T05:47:32;98981.25;;;7.30;100.00
33554;BME280;19885;42.208;24.952;2023-11-18T05:49:59;98973.47;;;7.30;100.00
33554;BME280;19885;42.208;24.952;2023-11-18T05:52:24;98960.44;;;7.14;100.00
33554;BME280;19885;42.208;24.952;2023-11-18T05:54:50;98963.84;;;7.09;100.00
33554;BME280;19885;42.208;24.952;2023-11-18T05:57:15;98959.56;;;7.08;100.00
33554;BME280;19885;42.208;24.952;2023-11-18T05:59:41;98972.47;;;7.06;100.00
33554;BME280;19885;42.208;24.952;2023-11-18T06:02:07;98988.91;;;7.10;100.00
33554;BME280;19885;42.208;24.952;2023-11-18T06:04:33;98988.03;;;7.09;100.00
33554;BME280;19885;42.208;24.952;2023-11-18T06:06:58;98975.06;;;7.05;100.00
33554;BME280;19885;42.208;24.952;2023-11-18T06:09:23;98981.13;;;7.04;100.00
33554;BME280;19885;42.208;24.952;2023-11-18T06:11:53;98984.53;;;7.00;100.00
33554;BME280;19885;42.208;24.952;2023-11-18T06:14:20;98993.13;;;6.96;100.00
33554;BME280;19885;42.208;24.952;2023-11-18T06:16:46;99019.97;;;7.04;100.00
33554;BME280;19885;42.208;24.952;2023-11-18T06:19:13;99027.69;;;6.99;100.00
33554;BME280;19885;42.208;24.952;2023-11-18T06:21:44;99026.84;;;7.05;100.00
33554;BME280;19885;42.208;24.952;2023-11-18T06:24:09;99022.56;;;7.05;100.00
33554;BME280;19885;42.208;24.952;2023-11-18T06:26:36;99019.09;;;7.06;100.00
33554;BME280;19885;42.208;24.952;2023-11-18T06:29:02;99017.34;;;7.02;100.00
33554;BME280;19885;42.208;24.952;2023-11-18T06:31:29;99004.41;;;7.02;100.00
33554;BME280;19885;42.208;24.952;2023-11-18T06:33:55;98998.34;;;7.00;100.00
33554;BME280;19885;42.208;24.952;2023-11-18T06:36:21;98995.75;;;6.99;100.00
33554;BME280;19885;42.208;24.952;2023-11-18T06:38:50;99000.94;;;6.99;100.00
33554;BME280;19885;42.208;24.952;2023-11-18T06:41:17;99008.69;;;7.00;100.00
33554;BME280;19885;42.208;24.952;2023-11-18T06:43:43;99005.25;;;6.98;100.00
33554;BME280;19885;42.208;24.952;2023-11-18T06:46:22;98995.72;;;6.96;100.00
33554;BME280;19885;42.208;24.952;2023-11-18T06:48:50;98996.56;;;6.92;100.00
33554;BME280;19885;42.208;24.952;2023-11-18T06:51:19;98996.56;;;6.93;100.00
33554;BME280;19885;42.208;24.952;2023-11-18T06:53:46;98987.09;;;6.92;100.00
33554;BME280;19885;42.208;24.952;2023-11-18T06:56:11;98986.25;;;6.96;100.00
33554;BME280;19885;42.208;24.952;2023-11-18T06:58:38;99001.78;;;6.96;100.00
33554;BME280;19885;42.208;24.952;2023-11-18T07:01:03;98997.47;;;7.00;100.00
33554;BME280;19885;42.208;24.952;2023-11-18T07:03:30;98994.88;;;7.00;100.00
33554;BME280;19885;42.208;24.952;2023-11-18T07:05:56;98991.44;;;7.02;100.00
33554;BME280;19885;42.208;24.952;2023-11-18T07:08:22;99000.09;;;7.01;100.00
33554;BME280;19885;42.208;24.952;2023-11-18T07:10:47;99001.81;;;7.02;100.00
33554;BME280;19885;42.208;24.952;2023-11-18T07:13:13;98989.72;;;7.04;100.00
33554;BME280;19885;42.208;24.952;2023-11-18T07:15:39;98963.81;;;7.04;100.00
33554;BME280;19885;42.208;24.952;2023-11-18T07:18:04;98983.69;;;7.07;100.00
33554;BME280;19885;42.208;24.952;2023-11-18T07:20:29;98982.81;;;7.06;100.00
33554;BME280;19885;42.208;24.952;2023-11-18T07:22:54;98962.13;;;7.03;100.00
33554;BME280;19885;42.208;24.952;2023-11-18T07:25:20;98968.13;;;7.02;100.00
33554;BME280;19885;42.208;24.952;2023-11-18T07:27:46;98967.28;;;7.03;100.00
33554;BME280;19885;42.208;24.952;2023-11-18T07:30:11;98974.19;;;7.01;100.00
33554;BME280;19885;42.208;24.952;2023-11-18T07:32:36;98967.31;;;7.08;100.00
33554;BME280;19885;42.208;24.952;2023-11-18T07:35:02;98956.97;;;7.09;100.00
33554;BME280;19885;42.208;24.952;2023-11-18T07:37:27;98957.00;;;7.12;100.00
33554;BME280;19885;42.208;24.952;2023-11-18T07:39:57;98951.81;;;7.18;100.00
33554;BME280;19885;42.208;24.952;2023-11-18T07:42:26;98951.81;;;7.14;98.86
33554;BME280;19885;42.208;24.952;2023-11-18T07:44:51;98944.94;;;7.17;100.00
33554;BME280;19885;42.208;24.952;2023-11-18T07:47:16;98934.59;;;7.24;100.00
33554;BME280;19885;42.208;24.952;2023-11-18T07:49:42;98932.91;;;7.35;100.00
33554;BME280;19885;42.208;24.952;2023-11-18T07:52:07;98931.22;;;7.38;98.95
33554;BME280;19885;42.208;24.952;2023-11-18T07:54:32;98937.25;;;7.40;98.33
33554;BME280;19885;42.208;24.952;2023-11-18T07:56:58;98934.69;;;7.45;98.20
33554;BME280;19885;42.208;24.952;2023-11-18T07:59:24;98943.34;;;7.47;97.64
33554;BME280;19885;42.208;24.952;2023-11-18T08:01:49;98940.75;;;7.48;96.09
33554;BME280;19885;42.208;24.952;2023-11-18T08:04:15;98939.00;;;7.50;96.45
33554;BME280;19885;42.208;24.952;2023-11-18T08:06:40;98927.78;;;7.50;96.05
33554;BME280;19885;42.208;24.952;2023-11-18T08:09:06;98943.31;;;7.50;94.78
33554;BME280;19885;42.208;24.952;2023-11-18T08:11:40;98948.53;;;7.51;92.26
33554;BME280;19885;42.208;24.952;2023-11-18T08:14:08;98937.28;;;7.46;92.48
33554;BME280;19885;42.208;24.952;2023-11-18T08:16:34;98932.13;;;7.54;92.31
33554;BME280;19885;42.208;24.952;2023-11-18T08:18:59;98937.28;;;7.52;92.15
33554;BME280;19885;42.208;24.952;2023-11-18T08:21:27;98953.72;;;7.59;92.50
33554;BME280;19885;42.208;24.952;2023-11-18T08:23:53;98957.22;;;7.64;91.73
33554;BME280;19885;42.208;24.952;2023-11-18T08:26:18;98969.28;;;7.59;91.24
33554;BME280;19885;42.208;24.952;2023-11-18T08:28:44;98970.19;;;7.65;92.21
33554;BME280;19885;42.208;24.952;2023-11-18T08:31:12;98969.28;;;7.59;91.96
33554;BME280;19885;42.208;24.952;2023-11-18T08:33:40;98970.19;;;7.62;91.12
33554;BME280;19885;42.208;24.952;2023-11-18T08:36:06;98968.44;;;7.64;91.49
33554;BME280;19885;42.208;24.952;2023-11-18T08:38:32;98969.31;;;7.60;92.11
33554;BME280;19885;42.208;24.952;2023-11-18T08:40:58;98955.50;;;7.69;91.99
33554;BME280;19885;42.208;24.952;2023-11-18T08:43:23;98961.53;;;7.68;90.55
33554;BME280;19885;42.208;24.952;2023-11-18T08:45:48;98969.34;;;7.74;90.93
33554;BME280;19885;42.208;24.952;2023-11-18T08:48:15;98952.06;;;7.76;92.11
33554;BME280;19885;42.208;24.952;2023-11-18T08:50:43;98975.41;;;7.80;90.20
33554;BME280;19885;42.208;24.952;2023-11-18T08:53:10;98977.16;;;7.86;91.91
33554;BME280;19885;42.208;24.952;2023-11-18T08:55:37;98979.75;;;7.89;91.37
33554;BME280;19885;42.208;24.952;2023-11-18T08:58:06;98972.88;;;7.94;92.30
33554;BME280;19885;42.208;24.952;2023-11-18T09:00:45;98971.13;;;7.96;90.91
33554;BME280;19885;42.208;24.952;2023-11-18T09:03:13;98962.50;;;7.99;92.84
33554;BME280;19885;42.208;24.952;2023-11-18T09:05:59;98959.03;;;7.93;90.42
33554;BME280;19885;42.208;24.952;2023-11-18T09:08:30;98945.19;;;7.93;89.89
33554;BME280;19885;42.208;24.952;2023-11-18T09:11:00;98953.84;;;7.98;89.07
33554;BME280;19885;42.208;24.952;2023-11-18T09:13:25;98946.94;;;8.00;91.73
33554;BME280;19885;42.208;24.952;2023-11-18T09:15:58;98943.47;;;8.03;90.87
33554;BME280;19885;42.208;24.952;2023-11-18T09:18:25;98951.28;;;8.06;89.05
33554;BME280;19885;42.208;24.952;2023-11-18T09:20:51;98941.78;;;8.06;88.99
33554;BME280;19885;42.208;24.952;2023-11-18T09:23:17;98946.09;;;8.13;89.42
33554;BME280;19885;42.208;24.952;2023-11-18T09:25:45;98938.28;;;8.04;87.99
33554;BME280;19885;42.208;24.952;2023-11-18T09:28:11;98948.69;;;8.07;88.28
33554;BME280;19885;42.208;24.952;2023-11-18T09:30:37;98941.75;;;8.03;87.57
33554;BME280;19885;42.208;24.952;2023-11-18T09:33:15;98949.56;;;8.02;87.22
33554;BME280;19885;42.208;24.952;2023-11-18T09:35:50;98945.22;;;8.08;88.68
33554;BME280;19885;42.208;24.952;2023-11-18T09:38:17;98936.59;;;8.12;87.64
33554;BME280;19885;42.208;24.952;2023-11-18T09:40:42;98932.28;;;8.17;86.15
33554;BME280;19885;42.208;24.952;2023-11-18T09:43:08;98937.47;;;8.22;88.35
33554;BME280;19885;42.208;24.952;2023-11-18T09:45:36;98958.22;;;8.23;87.45
33554;BME280;19885;42.208;24.952;2023-11-18T09:48:01;98934.91;;;8.26;86.47
33554;BME280;19885;42.208;24.952;2023-11-18T09:50:26;98940.09;;;8.26;86.19
33554;BME280;19885;42.208;24.952;2023-11-18T09:52:54;98929.72;;;8.26;87.28
33554;BME280;19885;42.208;24.952;2023-11-18T09:55:32;98937.50;;;8.32;86.44
33554;BME280;19885;42.208;24.952;2023-11-18T09:58:04;98935.78;;;8.36;87.01
33554;BME280;19885;42.208;24.952;2023-11-18T10:00:34;98924.50;;;8.34;84.33
33554;BME280;19885;42.208;24.952;2023-11-18T10:03:06;98934.06;;;8.38;84.43
33554;BME280;19885;42.208;24.952;2023-11-18T10:05:33;98923.66;;;8.32;83.75
33554;BME280;19885;42.208;24.952;2023-11-18T10:08:02;98923.66;;;8.36;84.86
33554;BME280;19885;42.208;24.952;2023-11-18T10:10:30;98939.22;;;8.36;84.67
33554;BME280;19885;42.208;24.952;2023-11-18T10:13:01;98919.31;;;8.37;85.37
33554;BME280;19885;42.208;24.952;2023-11-18T10:15:29;98922.81;;;8.33;84.59
33554;BME280;19885;42.208;24.952;2023-11-18T10:17:56;98916.75;;;8.35;82.91
33554;BME280;19885;42.208;24.952;2023-11-18T10:20:46;98908.97;;;8.26;82.72
33554;BME280;19885;42.208;24.952;2023-11-18T10:23:10;98913.25;;;8.32;84.81
33554;BME280;19885;42.208;24.952;2023-11-18T10:25:36;98903.75;;;8.32;84.00
33554;BME280;19885;42.208;24.952;2023-11-18T10:28:09;98905.47;;;8.27;83.72
33554;BME280;19885;42.208;24.952;2023-11-18T10:30:45;98903.75;;;8.32;83.48
33554;BME280;19885;42.208;24.952;2023-11-18T10:33:14;98913.25;;;8.36;84.18
33554;BME280;19885;42.208;24.952;2023-11-18T10:35:48;98904.63;;;8.36;83.51
33554;BME280;19885;42.208;24.952;2023-11-18T10:38:13;98894.25;;;8.40;84.15
33554;BME280;19885;42.208;24.952;2023-11-18T10:40:41;98916.72;;;8.47;85.59
33554;BME280;19885;42.208;24.952;2023-11-18T10:43:08;98908.09;;;8.48;83.28
33554;BME280;19885;42.208;24.952;2023-11-18T10:45:35;98893.38;;;8.44;82.67
33554;BME280;19885;42.208;24.952;2023-11-18T10:48:07;98887.28;;;8.54;84.68
33554;BME280;19885;42.208;24.952;2023-11-18T10:50:32;98890.78;;;8.50;82.65
33554;BME280;19885;42.208;24.952;2023-11-18T10:53:01;98885.56;;;8.58;83.72
33554;BME280;19885;42.208;24.952;2023-11-18T10:55:34;98874.31;;;8.70;83.06
33554;BME280;19885;42.208;24.952;2023-11-18T10:58:00;98884.69;;;8.70;81.30
33554;BME280;19885;42.208;24.952;2023-11-18T11:00:26;98896.81;;;8.65;82.16
33554;BME280;19885;42.208;24.952;2023-11-18T11:03:00;98882.09;;;8.67;82.62
33554;BME280;19885;42.208;24.952;2023-11-18T11:05:28;98895.06;;;8.63;84.08
33554;BME280;19885;42.208;24.952;2023-11-18T11:07:58;98883.00;;;8.53;82.04
33554;BME280;19885;42.208;24.952;2023-11-18T11:10:24;98891.66;;;8.46;81.87
33554;BME280;19885;42.208;24.952;2023-11-18T11:12:53;98894.25;;;8.45;81.93
33554;BME280;19885;42.208;24.952;2023-11-18T11:15:23;98893.38;;;8.32;82.80
33554;BME280;19885;42.208;24.952;2023-11-18T11:17:53;98888.19;;;8.32;81.80
33554;BME280;19885;42.208;24.952;2023-11-18T11:20:27;98893.38;;;8.26;82.17
33554;BME280;19885;42.208;24.952;2023-11-18T11:23:12;98907.19;;;8.25;82.16
33554;BME280;19885;42.208;24.952;2023-11-18T11:28:21;98888.19;;;8.31;83.19
33554;BME280;19885;42.208;24.952;2023-11-18T11:31:03;98900.31;;;8.35;81.71
33554;BME280;19885;42.208;24.952;2023-11-18T11:33:40;98898.56;;;8.44;83.04
33554;BME280;19885;42.208;24.952;2023-11-18T11:36:16;98896.81;;;8.55;82.23
33554;BME280;19885;42.208;24.952;2023-11-18T11:38:42;98891.63;;;8.61;81.01
33554;BME280;19885;42.208;24.952;2023-11-18T11:41:11;98892.50;;;8.56;81.89
33554;BME280;19885;42.208;24.952;2023-11-18T11:43:46;98893.38;;;8.53;79.44
33554;BME280;19885;42.208;24.952;2023-11-18T11:46:12;98889.88;;;8.54;80.83
33554;BME280;19885;42.208;24.952;2023-11-18T11:48:38;98879.53;;;8.60;81.16
33554;BME280;19885;42.208;24.952;2023-11-18T11:51:10;98896.81;;;8.63;80.28
33554;BME280;19885;42.208;24.952;2023-11-18T11:53:49;98898.53;;;8.76;80.28
33554;BME280;19885;42.208;24.952;2023-11-18T11:56:17;98903.69;;;8.84;80.29
33554;BME280;19885;42.208;24.952;2023-11-18T11:58:49;98907.16;;;8.89;80.02
33554;BME280;19885;42.208;24.952;2023-11-18T12:01:22;98896.75;;;8.92;79.19
33554;BME280;19885;42.208;24.952;2023-11-18T12:03:51;98913.22;;;8.80;77.49
33554;BME280;19885;42.208;24.952;2023-11-18T12:06:22;98902.84;;;8.79;78.76
33554;BME280;19885;42.208;24.952;2023-11-18T12:08:52;98905.44;;;8.80;78.06
33554;BME280;19885;42.208;24.952;2023-11-18T12:11:18;98917.56;;;8.80;77.95
33554;BME280;19885;42.208;24.952;2023-11-18T12:14:00;98920.16;;;8.90;78.19
33554;BME280;19885;42.208;24.952;2023-11-18T12:19:30;98917.56;;;8.78;79.12
33554;BME280;19885;42.208;24.952;2023-11-18T12:22:02;98914.09;;;8.81;77.56
33554;BME280;19885;42.208;24.952;2023-11-18T12:24:38;98918.47;;;8.70;76.60
33554;BME280;19885;42.208;24.952;2023-11-18T12:27:04;98920.16;;;8.75;78.14
33554;BME280;19885;42.208;24.952;2023-11-18T12:29:40;98894.19;;;8.83;78.05
33554;BME280;19885;42.208;24.952;2023-11-18T12:32:06;98921.00;;;8.94;78.29
33554;BME280;19885;42.208;24.952;2023-11-18T12:34:52;98912.31;;;8.98;77.21
33554;BME280;19885;42.208;24.952;2023-11-18T12:40:16;98926.16;;;9.00;77.19
33554;BME280;19885;42.208;24.952;2023-11-18T12:42:58;98911.41;;;9.17;75.86
33554;BME280;19885;42.208;24.952;2023-11-18T12:48:09;98926.06;;;9.31;77.75
33554;BME280;19885;42.208;24.952;2023-11-18T12:50:42;98930.47;;;9.22;75.94
33554;BME280;19885;42.208;24.952;2023-11-18T12:53:11;98914.00;;;9.11;76.79
33554;BME280;19885;42.208;24.952;2023-11-18T12:55:39;98913.16;;;9.07;76.62
33554;BME280;19885;42.208;24.952;2023-11-18T12:58:05;98921.81;;;9.09;77.57
33554;BME280;19885;42.208;24.952;2023-11-18T13:00:31;98926.13;;;9.24;78.01
33554;BME280;19885;42.208;24.952;2023-11-18T13:02:59;98922.69;;;9.11;75.97
33554;BME280;19885;42.208;24.952;2023-11-18T13:05:24;98928.72;;;9.13;78.44
33554;BME280;19885;42.208;24.952;2023-11-18T13:07:55;98940.00;;;9.11;78.58